Ontario, OR (97914)

7:31 PM MDT on August 03, 2015 (GMT -0600)
Payette Foothills | | Change Station
CLOSE
Current Station
Personal Weather Station
Location: Payette, ID
Elevation: 2209 ft
Nearby Weather Stations
Active Advisory: Fire Weather Warning Active Notice: Record Report

Elev 2209 ft 44.08 °N, 116.92 °W | Updated 1 minute ago

Clear
Clear
89.8 °F
Feels Like 86 °F
N
2.7
Wind Variable Wind from WNW
Gusts 4.0 mph

Today
High -- | Low -- °F
--% Chance of Precip.
Yesterday
High -- | Low -- °F
Precip. -- in
6:37 AM 9:09 PM
Waning Gibbous, 82% visible
Pressure 29.76 in
Visibility 10.0 miles
Clouds Clear
Heat Index 86 °F
Dew Point 32 °F
Humidity 12%
Rainfall 0.00 in
Snow Depth Not available.
UV 2 out of 12
Pollen 5.60 out of 12
Air Quality Not available.
Flu Activity Not available.
METAR KONO 040053Z AUTO 00000KT 10SM CLR 33/11 A2982 RMK AO2 SLP078 T03280106

More Conditions Fewer Conditions

Pressure 29.76 in
Visibility 10.0 miles
Clouds Clear
Heat Index 86 °F
Dew Point 32 °F
Humidity 12%
Rainfall 0.00 in
Snow Depth Not available.
UV 2 out of 12
Pollen 5.60 out of 12
Air Quality Not available.
Flu Activity Not available.
METAR KONO 040053Z AUTO 00000KT 10SM CLR 33/11 A2982 RMK AO2 SLP078 T03280106

More Conditions Fewer Conditions

10-Day Weather Forecast

×

Almanac

Astronomy

Aug. 03, 2015 Rise Set
Actual Time
Civil Twilight
Nautical Twilight
Astronomical Twilight
Moon
Length of Visible Light
Length of Day
Tomorrow will be .
, % of the Moon is Illuminated

Today's Extremes

State Highs State Lows

Community

WunderPhotos

Upload Photos

1,843,816 photos uploaded!

WunderBlogs® & News

Nearby

Air Quality

  Air Quality AQ Index Pollutant
Not available.

Snow Depth

Station Depth Elevation

Earthquake Activity

City Distance Mag. Time & Date
Minimum magnitude displayed is 2.5.

Coastal Water Temperatures

Place Temperature

Stations

Nearby Weather Stations

Station Location Temp. Windchill Dew Point Humidity Wind Precip. Elev Updated Type
                   
Fire Weather Warning
Statement as of 9:11 AM PDT on August 03, 2015

... Red flag warning for lightning remains in effect until 9 PM
MDT /8 PM PDT/ for the Owyhee Mountains... southern Highlands...
Burns blm... and Vale blm... fire weather zones 636 637 423 426...

* thunderstorms... becoming scattered in coverage this afternoon.

* Outflow winds... gusts up to 40 mph are possible with these
storms.

Precautionary/preparedness actions...

A red flag warning means that critical fire weather conditions
are either occurring now... or will shortly.